sensor_id;sensor_type;location;lat;lon;timestamp;P1;durP1;ratioP1;P2;durP2;ratioP2
20283;SDS011;10301;50.832;4.080;2024-03-22T00:00:12;52.92;;;32.63;;
20283;SDS011;10301;50.832;4.080;2024-03-22T00:02:38;53.28;;;32.13;;
20283;SDS011;10301;50.832;4.080;2024-03-22T00:05:04;49.22;;;30.73;;
20283;SDS011;10301;50.832;4.080;2024-03-22T00:07:30;53.05;;;31.85;;
20283;SDS011;10301;50.832;4.080;2024-03-22T00:09:56;51.25;;;30.65;;
20283;SDS011;10301;50.832;4.080;2024-03-22T00:12:22;51.10;;;31.52;;
20283;SDS011;10301;50.832;4.080;2024-03-22T00:14:48;46.38;;;30.63;;
20283;SDS011;10301;50.832;4.080;2024-03-22T00:17:13;50.50;;;31.20;;
20283;SDS011;10301;50.832;4.080;2024-03-22T00:19:39;50.15;;;29.13;;
20283;SDS011;10301;50.832;4.080;2024-03-22T00:22:06;46.75;;;29.45;;
20283;SDS011;10301;50.832;4.080;2024-03-22T00:24:32;52.15;;;30.73;;
20283;SDS011;10301;50.832;4.080;2024-03-22T00:26:57;50.63;;;30.67;;
20283;SDS011;10301;50.832;4.080;2024-03-22T00:29:23;47.45;;;30.60;;
20283;SDS011;10301;50.832;4.080;2024-03-22T00:31:49;47.22;;;29.55;;
20283;SDS011;10301;50.832;4.080;2024-03-22T00:34:14;50.15;;;30.98;;
20283;SDS011;10301;50.832;4.080;2024-03-22T00:36:40;49.17;;;31.27;;
20283;SDS011;10301;50.832;4.080;2024-03-22T00:39:05;50.42;;;31.85;;
20283;SDS011;10301;50.832;4.080;2024-03-22T00:41:31;51.17;;;31.25;;
20283;SDS011;10301;50.832;4.080;2024-03-22T00:43:57;50.17;;;31.85;;
20283;SDS011;10301;50.832;4.080;2024-03-22T00:46:23;52.67;;;31.92;;
20283;SDS011;10301;50.832;4.080;2024-03-22T00:48:48;50.20;;;31.20;;
20283;SDS011;10301;50.832;4.080;2024-03-22T00:51:14;47.20;;;31.27;;
20283;SDS011;10301;50.832;4.080;2024-03-22T00:53:40;51.78;;;30.40;;
20283;SDS011;10301;50.832;4.080;2024-03-22T00:56:05;53.35;;;31.52;;
20283;SDS011;10301;50.832;4.080;2024-03-22T00:58:31;52.63;;;30.52;;
20283;SDS011;10301;50.832;4.080;2024-03-22T01:00:57;49.90;;;30.95;;
20283;SDS011;10301;50.832;4.080;2024-03-22T01:03:22;54.47;;;32.50;;
20283;SDS011;10301;50.832;4.080;2024-03-22T01:05:48;54.58;;;31.80;;
20283;SDS011;10301;50.832;4.080;2024-03-22T01:08:14;53.78;;;31.95;;
20283;SDS011;10301;50.832;4.080;2024-03-22T01:10:40;54.67;;;32.83;;
20283;SDS011;10301;50.832;4.080;2024-03-22T01:13:06;51.78;;;31.23;;
20283;SDS011;10301;50.832;4.080;2024-03-22T01:15:31;54.78;;;30.83;;
20283;SDS011;10301;50.832;4.080;2024-03-22T01:17:57;51.88;;;30.27;;
20283;SDS011;10301;50.832;4.080;2024-03-22T01:20:23;51.05;;;30.08;;
20283;SDS011;10301;50.832;4.080;2024-03-22T01:22:48;53.25;;;30.90;;
20283;SDS011;10301;50.832;4.080;2024-03-22T01:25:14;50.13;;;30.60;;
20283;SDS011;10301;50.832;4.080;2024-03-22T01:27:40;56.38;;;31.67;;
20283;SDS011;10301;50.832;4.080;2024-03-22T01:30:05;54.35;;;30.88;;
20283;SDS011;10301;50.832;4.080;2024-03-22T01:32:31;52.75;;;31.27;;
20283;SDS011;10301;50.832;4.080;2024-03-22T01:34:57;52.30;;;29.85;;
20283;SDS011;10301;50.832;4.080;2024-03-22T01:37:23;50.42;;;29.90;;
20283;SDS011;10301;50.832;4.080;2024-03-22T01:39:48;50.70;;;30.67;;
20283;SDS011;10301;50.832;4.080;2024-03-22T01:42:14;54.60;;;30.65;;
20283;SDS011;10301;50.832;4.080;2024-03-22T01:44:40;53.30;;;31.48;;
20283;SDS011;10301;50.832;4.080;2024-03-22T01:47:06;53.20;;;32.22;;
20283;SDS011;10301;50.832;4.080;2024-03-22T01:49:32;52.85;;;29.15;;
20283;SDS011;10301;50.832;4.080;2024-03-22T01:51:58;48.08;;;28.02;;
20283;SDS011;10301;50.832;4.080;2024-03-22T01:54:23;48.42;;;29.10;;
20283;SDS011;10301;50.832;4.080;2024-03-22T01:56:49;47.70;;;29.25;;
20283;SDS011;10301;50.832;4.080;2024-03-22T01:59:15;44.63;;;27.13;;
20283;SDS011;10301;50.832;4.080;2024-03-22T02:01:43;47.00;;;27.00;;
20283;SDS011;10301;50.832;4.080;2024-03-22T02:04:08;51.13;;;27.75;;
20283;SDS011;10301;50.832;4.080;2024-03-22T02:06:35;46.50;;;26.65;;
20283;SDS011;10301;50.832;4.080;2024-03-22T02:09:00;45.00;;;26.95;;
20283;SDS011;10301;50.832;4.080;2024-03-22T02:11:30;45.28;;;25.52;;
20283;SDS011;10301;50.832;4.080;2024-03-22T02:13:56;48.85;;;26.63;;
20283;SDS011;10301;50.832;4.080;2024-03-22T02:16:21;48.35;;;26.63;;
20283;SDS011;10301;50.832;4.080;2024-03-22T02:18:47;50.58;;;26.20;;
20283;SDS011;10301;50.832;4.080;2024-03-22T02:21:13;42.90;;;25.25;;
20283;SDS011;10301;50.832;4.080;2024-03-22T02:23:39;47.55;;;24.60;;
20283;SDS011;10301;50.832;4.080;2024-03-22T02:26:06;47.97;;;25.67;;
20283;SDS011;10301;50.832;4.080;2024-03-22T02:28:33;42.90;;;24.77;;
20283;SDS011;10301;50.832;4.080;2024-03-22T02:30:59;40.80;;;24.98;;
20283;SDS011;10301;50.832;4.080;2024-03-22T02:33:25;42.92;;;23.92;;
20283;SDS011;10301;50.832;4.080;2024-03-22T02:35:51;41.40;;;24.27;;
20283;SDS011;10301;50.832;4.080;2024-03-22T02:38:20;43.10;;;23.65;;
20283;SDS011;10301;50.832;4.080;2024-03-22T02:40:46;41.00;;;22.73;;
20283;SDS011;10301;50.832;4.080;2024-03-22T02:43:13;41.53;;;23.80;;
20283;SDS011;10301;50.832;4.080;2024-03-22T02:45:39;40.95;;;23.85;;
20283;SDS011;10301;50.832;4.080;2024-03-22T02:48:05;42.30;;;22.08;;
20283;SDS011;10301;50.832;4.080;2024-03-22T02:50:34;40.95;;;22.70;;
20283;SDS011;10301;50.832;4.080;2024-03-22T02:53:01;41.50;;;22.70;;
20283;SDS011;10301;50.832;4.080;2024-03-22T02:55:27;42.70;;;23.33;;
20283;SDS011;10301;50.832;4.080;2024-03-22T02:57:53;40.85;;;22.63;;
20283;SDS011;10301;50.832;4.080;2024-03-22T03:00:18;40.42;;;23.00;;
20283;SDS011;10301;50.832;4.080;2024-03-22T03:02:45;43.42;;;24.15;;
20283;SDS011;10301;50.832;4.080;2024-03-22T03:05:11;36.15;;;22.10;;
20283;SDS011;10301;50.832;4.080;2024-03-22T03:07:37;38.28;;;22.40;;
20283;SDS011;10301;50.832;4.080;2024-03-22T03:10:02;39.78;;;21.95;;
20283;SDS011;10301;50.832;4.080;2024-03-22T03:12:28;45.78;;;24.38;;
20283;SDS011;10301;50.832;4.080;2024-03-22T03:14:54;42.08;;;21.90;;
20283;SDS011;10301;50.832;4.080;2024-03-22T03:17:19;44.30;;;22.33;;
20283;SDS011;10301;50.832;4.080;2024-03-22T03:19:45;38.47;;;21.13;;
20283;SDS011;10301;50.832;4.080;2024-03-22T03:22:10;41.17;;;22.98;;
20283;SDS011;10301;50.832;4.080;2024-03-22T03:24:36;38.22;;;21.30;;
20283;SDS011;10301;50.832;4.080;2024-03-22T03:27:02;39.22;;;22.30;;
20283;SDS011;10301;50.832;4.080;2024-03-22T03:29:28;43.92;;;21.75;;
20283;SDS011;10301;50.832;4.080;2024-03-22T03:31:53;40.42;;;21.27;;
20283;SDS011;10301;50.832;4.080;2024-03-22T03:34:19;42.53;;;23.05;;
20283;SDS011;10301;50.832;4.080;2024-03-22T03:36:45;37.83;;;21.45;;
20283;SDS011;10301;50.832;4.080;2024-03-22T03:39:11;46.97;;;23.85;;
20283;SDS011;10301;50.832;4.080;2024-03-22T03:41:37;41.40;;;22.75;;
20283;SDS011;10301;50.832;4.080;2024-03-22T03:44:03;40.05;;;22.08;;
20283;SDS011;10301;50.832;4.080;2024-03-22T03:46:28;40.33;;;21.80;;
20283;SDS011;10301;50.832;4.080;2024-03-22T03:48:54;39.70;;;21.83;;
20283;SDS011;10301;50.832;4.080;2024-03-22T03:51:20;42.20;;;22.45;;
20283;SDS011;10301;50.832;4.080;2024-03-22T03:53:45;39.10;;;20.35;;
20283;SDS011;10301;50.832;4.080;2024-03-22T03:56:11;41.22;;;21.17;;
20283;SDS011;10301;50.832;4.080;2024-03-22T03:58:36;40.42;;;21.42;;
20283;SDS011;10301;50.832;4.080;2024-03-22T04:01:06;34.38;;;17.75;;
20283;SDS011;10301;50.832;4.080;2024-03-22T04:03:32;35.35;;;18.13;;
20283;SDS011;10301;50.832;4.080;2024-03-22T04:05:58;34.08;;;19.83;;
20283;SDS011;10301;50.832;4.080;2024-03-22T04:08:24;37.17;;;18.75;;
20283;SDS011;10301;50.832;4.080;2024-03-22T04:10:51;38.55;;;20.67;;
20283;SDS011;10301;50.832;4.080;2024-03-22T04:13:18;36.60;;;20.30;;
20283;SDS011;10301;50.832;4.080;2024-03-22T04:15:43;41.35;;;21.08;;
20283;SDS011;10301;50.832;4.080;2024-03-22T04:18:09;38.38;;;20.65;;
20283;SDS011;10301;50.832;4.080;2024-03-22T04:20:35;34.85;;;20.08;;
20283;SDS011;10301;50.832;4.080;2024-03-22T04:23:00;38.60;;;20.10;;
20283;SDS011;10301;50.832;4.080;2024-03-22T04:25:26;39.80;;;20.05;;
20283;SDS011;10301;50.832;4.080;2024-03-22T04:27:51;37.40;;;20.20;;
20283;SDS011;10301;50.832;4.080;2024-03-22T04:30:17;31.77;;;18.08;;
20283;SDS011;10301;50.832;4.080;2024-03-22T04:32:45;34.67;;;19.05;;
20283;SDS011;10301;50.832;4.080;2024-03-22T04:35:11;34.83;;;19.17;;
20283;SDS011;10301;50.832;4.080;2024-03-22T04:37:36;37.42;;;19.33;;
20283;SDS011;10301;50.832;4.080;2024-03-22T04:40:02;37.10;;;20.40;;
20283;SDS011;10301;50.832;4.080;2024-03-22T04:42:28;34.78;;;20.33;;
20283;SDS011;10301;50.832;4.080;2024-03-22T04:44:54;42.63;;;20.27;;
20283;SDS011;10301;50.832;4.080;2024-03-22T04:47:20;37.17;;;19.77;;
20283;SDS011;10301;50.832;4.080;2024-03-22T04:49:48;38.63;;;19.98;;
20283;SDS011;10301;50.832;4.080;2024-03-22T04:52:14;35.08;;;20.40;;
20283;SDS011;10301;50.832;4.080;2024-03-22T04:54:40;38.15;;;20.45;;
20283;SDS011;10301;50.832;4.080;2024-03-22T04:57:05;38.30;;;20.77;;
20283;SDS011;10301;50.832;4.080;2024-03-22T04:59:31;35.72;;;21.02;;
20283;SDS011;10301;50.832;4.080;2024-03-22T05:01:57;37.65;;;19.83;;
20283;SDS011;10301;50.832;4.080;2024-03-22T05:04:22;38.92;;;21.65;;
20283;SDS011;10301;50.832;4.080;2024-03-22T05:06:48;40.10;;;21.80;;
20283;SDS011;10301;50.832;4.080;2024-03-22T05:09:14;38.42;;;20.17;;
20283;SDS011;10301;50.832;4.080;2024-03-22T05:11:40;35.90;;;21.52;;
20283;SDS011;10301;50.832;4.080;2024-03-22T05:14:05;36.47;;;21.08;;
20283;SDS011;10301;50.832;4.080;2024-03-22T05:16:31;39.60;;;21.48;;
20283;SDS011;10301;50.832;4.080;2024-03-22T05:18:56;39.88;;;21.17;;
20283;SDS011;10301;50.832;4.080;2024-03-22T05:21:22;43.60;;;22.83;;
20283;SDS011;10301;50.832;4.080;2024-03-22T05:23:48;42.03;;;23.08;;
20283;SDS011;10301;50.832;4.080;2024-03-22T05:26:13;45.20;;;23.95;;
20283;SDS011;10301;50.832;4.080;2024-03-22T05:28:43;44.42;;;23.42;;
20283;SDS011;10301;50.832;4.080;2024-03-22T05:31:09;45.42;;;24.33;;
20283;SDS011;10301;50.832;4.080;2024-03-22T05:33:34;47.80;;;22.30;;
20283;SDS011;10301;50.832;4.080;2024-03-22T05:36:00;43.95;;;23.23;;
20283;SDS011;10301;50.832;4.080;2024-03-22T05:38:25;42.72;;;23.17;;
20283;SDS011;10301;50.832;4.080;2024-03-22T05:40:51;43.53;;;24.10;;
20283;SDS011;10301;50.832;4.080;2024-03-22T05:43:17;40.80;;;22.38;;
20283;SDS011;10301;50.832;4.080;2024-03-22T05:45:42;42.05;;;21.55;;
20283;SDS011;10301;50.832;4.080;2024-03-22T05:48:08;42.75;;;22.83;;
20283;SDS011;10301;50.832;4.080;2024-03-22T05:50:34;44.85;;;22.67;;
20283;SDS011;10301;50.832;4.080;2024-03-22T05:52:59;39.08;;;20.83;;
20283;SDS011;10301;50.832;4.080;2024-03-22T05:55:25;39.92;;;20.88;;
20283;SDS011;10301;50.832;4.080;2024-03-22T05:57:52;36.90;;;19.25;;
20283;SDS011;10301;50.832;4.080;2024-03-22T06:00:18;37.75;;;19.15;;
20283;SDS011;10301;50.832;4.080;2024-03-22T06:02:43;34.92;;;18.38;;
20283;SDS011;10301;50.832;4.080;2024-03-22T06:05:09;34.63;;;16.83;;
20283;SDS011;10301;50.832;4.080;2024-03-22T06:07:35;29.67;;;16.38;;
20283;SDS011;10301;50.832;4.080;2024-03-22T06:10:06;31.50;;;16.77;;
20283;SDS011;10301;50.832;4.080;2024-03-22T06:12:33;26.48;;;14.48;;
20283;SDS011;10301;50.832;4.080;2024-03-22T06:14:58;27.00;;;14.45;;
20283;SDS011;10301;50.832;4.080;2024-03-22T06:17:24;26.73;;;14.60;;
20283;SDS011;10301;50.832;4.080;2024-03-22T06:19:50;24.63;;;13.48;;
20283;SDS011;10301;50.832;4.080;2024-03-22T06:22:15;25.73;;;14.25;;
20283;SDS011;10301;50.832;4.080;2024-03-22T06:24:41;26.08;;;14.35;;
20283;SDS011;10301;50.832;4.080;2024-03-22T06:27:09;24.17;;;12.73;;
20283;SDS011;10301;50.832;4.080;2024-03-22T06:29:34;23.17;;;12.68;;
20283;SDS011;10301;50.832;4.080;2024-03-22T06:32:00;26.75;;;13.50;;
20283;SDS011;10301;50.832;4.080;2024-03-22T06:34:26;26.52;;;13.93;;
20283;SDS011;10301;50.832;4.080;2024-03-22T06:36:51;21.60;;;12.50;;
20283;SDS011;10301;50.832;4.080;2024-03-22T06:39:17;24.60;;;13.40;;
20283;SDS011;10301;50.832;4.080;2024-03-22T06:41:42;22.17;;;12.00;;
20283;SDS011;10301;50.832;4.080;2024-03-22T06:44:08;21.25;;;12.05;;
20283;SDS011;10301;50.832;4.080;2024-03-22T06:46:37;19.45;;;11.25;;
20283;SDS011;10301;50.832;4.080;2024-03-22T06:49:02;21.70;;;10.48;;
20283;SDS011;10301;50.832;4.080;2024-03-22T06:51:28;19.92;;;9.40;;
20283;SDS011;10301;50.832;4.080;2024-03-22T06:53:54;19.40;;;10.35;;
20283;SDS011;10301;50.832;4.080;2024-03-22T06:56:19;17.38;;;10.23;;
20283;SDS011;10301;50.832;4.080;2024-03-22T06:58:46;19.83;;;9.60;;
20283;SDS011;10301;50.832;4.080;2024-03-22T07:01:12;18.35;;;10.05;;
20283;SDS011;10301;50.832;4.080;2024-03-22T07:03:37;17.40;;;9.65;;
20283;SDS011;10301;50.832;4.080;2024-03-22T07:06:03;20.65;;;10.48;;
20283;SDS011;10301;50.832;4.080;2024-03-22T07:08:31;17.13;;;10.52;;
20283;SDS011;10301;50.832;4.080;2024-03-22T07:10:56;23.63;;;11.70;;
20283;SDS011;10301;50.832;4.080;2024-03-22T07:13:22;17.73;;;10.65;;
20283;SDS011;10301;50.832;4.080;2024-03-22T07:15:48;18.52;;;11.15;;
20283;SDS011;10301;50.832;4.080;2024-03-22T07:18:14;17.75;;;10.77;;
20283;SDS011;10301;50.832;4.080;2024-03-22T07:20:41;21.70;;;12.82;;
20283;SDS011;10301;50.832;4.080;2024-03-22T07:23:07;21.67;;;12.45;;
20283;SDS011;10301;50.832;4.080;2024-03-22T07:25:33;19.85;;;11.77;;
20283;SDS011;10301;50.832;4.080;2024-03-22T07:27:59;22.42;;;11.43;;
20283;SDS011;10301;50.832;4.080;2024-03-22T07:30:24;25.92;;;12.55;;
20283;SDS011;10301;50.832;4.080;2024-03-22T07:32:50;19.52;;;10.25;;
20283;SDS011;10301;50.832;4.080;2024-03-22T07:35:16;19.05;;;11.23;;
20283;SDS011;10301;50.832;4.080;2024-03-22T07:37:41;20.65;;;10.90;;
20283;SDS011;10301;50.832;4.080;2024-03-22T07:40:07;18.35;;;11.07;;
20283;SDS011;10301;50.832;4.080;2024-03-22T07:42:33;17.05;;;10.38;;
20283;SDS011;10301;50.832;4.080;2024-03-22T07:44:59;18.08;;;9.90;;
20283;SDS011;10301;50.832;4.080;2024-03-22T07:47:25;17.08;;;10.25;;
20283;SDS011;10301;50.832;4.080;2024-03-22T07:49:50;16.75;;;9.85;;
20283;SDS011;10301;50.832;4.080;2024-03-22T07:52:16;18.02;;;10.23;;
20283;SDS011;10301;50.832;4.080;2024-03-22T07:54:42;18.08;;;9.88;;
20283;SDS011;10301;50.832;4.080;2024-03-22T07:57:07;17.02;;;11.07;;
20283;SDS011;10301;50.832;4.080;2024-03-22T07:59:33;20.20;;;10.52;;
20283;SDS011;10301;50.832;4.080;2024-03-22T08:01:59;17.13;;;10.77;;
20283;SDS011;10301;50.832;4.080;2024-03-22T08:04:28;20.25;;;10.77;;
20283;SDS011;10301;50.832;4.080;2024-03-22T08:06:54;19.67;;;11.23;;
20283;SDS011;10301;50.832;4.080;2024-03-22T08:09:19;24.23;;;12.38;;
20283;SDS011;10301;50.832;4.080;2024-03-22T08:11:45;24.85;;;12.38;;
20283;SDS011;10301;50.832;4.080;2024-03-22T08:14:11;22.63;;;12.02;;
20283;SDS011;10301;50.832;4.080;2024-03-22T08:16:36;21.13;;;11.10;;
20283;SDS011;10301;50.832;4.080;2024-03-22T08:19:02;22.02;;;11.95;;
20283;SDS011;10301;50.832;4.080;2024-03-22T08:21:28;20.60;;;12.13;;
20283;SDS011;10301;50.832;4.080;2024-03-22T08:23:53;21.73;;;12.65;;
20283;SDS011;10301;50.832;4.080;2024-03-22T08:26:19;19.23;;;11.00;;
20283;SDS011;10301;50.832;4.080;2024-03-22T08:28:46;22.42;;;12.45;;
20283;SDS011;10301;50.832;4.080;2024-03-22T08:31:12;21.25;;;11.57;;
20283;SDS011;10301;50.832;4.080;2024-03-22T08:33:38;22.35;;;12.93;;
20283;SDS011;10301;50.832;4.080;2024-03-22T08:36:03;23.73;;;13.15;;
20283;SDS011;10301;50.832;4.080;2024-03-22T08:38:29;22.63;;;13.18;;
20283;SDS011;10301;50.832;4.080;2024-03-22T08:40:55;26.35;;;12.70;;
20283;SDS011;10301;50.832;4.080;2024-03-22T08:43:21;25.48;;;13.35;;
20283;SDS011;10301;50.832;4.080;2024-03-22T08:45:48;25.38;;;14.70;;
20283;SDS011;10301;50.832;4.080;2024-03-22T08:48:13;21.08;;;13.52;;
20283;SDS011;10301;50.832;4.080;2024-03-22T08:50:41;21.17;;;13.70;;
20283;SDS011;10301;50.832;4.080;2024-03-22T08:53:07;23.17;;;13.05;;
20283;SDS011;10301;50.832;4.080;2024-03-22T08:55:33;23.13;;;12.32;;
20283;SDS011;10301;50.832;4.080;2024-03-22T08:57:59;24.38;;;12.25;;
20283;SDS011;10301;50.832;4.080;2024-03-22T09:00:24;22.45;;;13.65;;
20283;SDS011;10301;50.832;4.080;2024-03-22T09:02:50;22.50;;;12.77;;
20283;SDS011;10301;50.832;4.080;2024-03-22T09:05:15;21.85;;;13.55;;
20283;SDS011;10301;50.832;4.080;2024-03-22T09:07:41;20.90;;;13.27;;
20283;SDS011;10301;50.832;4.080;2024-03-22T09:10:07;24.48;;;13.50;;
20283;SDS011;10301;50.832;4.080;2024-03-22T09:12:34;22.45;;;13.68;;
20283;SDS011;10301;50.832;4.080;2024-03-22T09:14:59;23.40;;;14.07;;
20283;SDS011;10301;50.832;4.080;2024-03-22T09:17:26;28.63;;;14.88;;
20283;SDS011;10301;50.832;4.080;2024-03-22T09:19:52;25.52;;;15.15;;
20283;SDS011;10301;50.832;4.080;2024-03-22T09:22:18;23.48;;;14.90;;
20283;SDS011;10301;50.832;4.080;2024-03-22T09:24:43;27.45;;;16.27;;
20283;SDS011;10301;50.832;4.080;2024-03-22T09:27:09;29.40;;;16.88;;
20283;SDS011;10301;50.832;4.080;2024-03-22T09:29:38;26.23;;;17.50;;
20283;SDS011;10301;50.832;4.080;2024-03-22T09:32:04;30.60;;;17.77;;
20283;SDS011;10301;50.832;4.080;2024-03-22T09:34:30;28.65;;;16.92;;
20283;SDS011;10301;50.832;4.080;2024-03-22T09:36:56;28.15;;;16.13;;
20283;SDS011;10301;50.832;4.080;2024-03-22T09:39:22;26.02;;;17.33;;
20283;SDS011;10301;50.832;4.080;2024-03-22T09:41:48;25.95;;;14.25;;
20283;SDS011;10301;50.832;4.080;2024-03-22T09:44:17;22.83;;;13.05;;
20283;SDS011;10301;50.832;4.080;2024-03-22T09:46:44;24.80;;;14.00;;
20283;SDS011;10301;50.832;4.080;2024-03-22T09:49:12;24.17;;;13.27;;
20283;SDS011;10301;50.832;4.080;2024-03-22T09:51:41;19.75;;;12.32;;
20283;SDS011;10301;50.832;4.080;2024-03-22T09:54:08;20.20;;;12.60;;
20283;SDS011;10301;50.832;4.080;2024-03-22T09:56:35;18.90;;;12.45;;
20283;SDS011;10301;50.832;4.080;2024-03-22T09:59:02;19.42;;;12.27;;
20283;SDS011;10301;50.832;4.080;2024-03-22T10:01:28;18.45;;;11.88;;
20283;SDS011;10301;50.832;4.080;2024-03-22T10:03:54;17.88;;;11.38;;
20283;SDS011;10301;50.832;4.080;2024-03-22T10:06:20;20.23;;;11.90;;
20283;SDS011;10301;50.832;4.080;2024-03-22T10:08:46;20.48;;;11.55;;
20283;SDS011;10301;50.832;4.080;2024-03-22T10:11:12;20.58;;;11.65;;
20283;SDS011;10301;50.832;4.080;2024-03-22T10:13:38;20.83;;;12.10;;
20283;SDS011;10301;50.832;4.080;2024-03-22T10:16:04;16.77;;;10.35;;
20283;SDS011;10301;50.832;4.080;2024-03-22T10:18:32;19.83;;;10.20;;
20283;SDS011;10301;50.832;4.080;2024-03-22T10:21:07;17.42;;;10.65;;
20283;SDS011;10301;50.832;4.080;2024-03-22T10:23:33;15.70;;;10.57;;
20283;SDS011;10301;50.832;4.080;2024-03-22T10:25:59;17.65;;;10.98;;
20283;SDS011;10301;50.832;4.080;2024-03-22T10:28:25;21.80;;;11.07;;
20283;SDS011;10301;50.832;4.080;2024-03-22T10:30:52;17.52;;;10.65;;
20283;SDS011;10301;50.832;4.080;2024-03-22T10:33:18;17.23;;;10.10;;
20283;SDS011;10301;50.832;4.080;2024-03-22T10:35:45;18.55;;;10.77;;
20283;SDS011;10301;50.832;4.080;2024-03-22T10:38:14;17.67;;;10.63;;
20283;SDS011;10301;50.832;4.080;2024-03-22T10:40:44;17.65;;;11.07;;
20283;SDS011;10301;50.832;4.080;2024-03-22T10:43:13;19.77;;;10.68;;
20283;SDS011;10301;50.832;4.080;2024-03-22T10:45:40;19.23;;;10.43;;
20283;SDS011;10301;50.832;4.080;2024-03-22T10:48:10;23.30;;;12.93;;
20283;SDS011;10301;50.832;4.080;2024-03-22T10:50:40;18.77;;;11.43;;
20283;SDS011;10301;50.832;4.080;2024-03-22T10:53:12;19.08;;;10.57;;
20283;SDS011;10301;50.832;4.080;2024-03-22T10:55:44;17.85;;;10.48;;
20283;SDS011;10301;50.832;4.080;2024-03-22T10:58:21;22.17;;;10.65;;
20283;SDS011;10301;50.832;4.080;2024-03-22T11:00:50;18.42;;;9.80;;
20283;SDS011;10301;50.832;4.080;2024-03-22T11:03:19;21.67;;;10.70;;
20283;SDS011;10301;50.832;4.080;2024-03-22T11:05:50;18.20;;;11.63;;
20283;SDS011;10301;50.832;4.080;2024-03-22T11:08:31;19.70;;;10.27;;
20283;SDS011;10301;50.832;4.080;2024-03-22T11:10:57;20.83;;;10.15;;
20283;SDS011;10301;50.832;4.080;2024-03-22T11:13:22;15.50;;;10.07;;
20283;SDS011;10301;50.832;4.080;2024-03-22T11:15:51;19.70;;;10.25;;
20283;SDS011;10301;50.832;4.080;2024-03-22T11:18:20;14.60;;;8.57;;
20283;SDS011;10301;50.832;4.080;2024-03-22T11:20:46;15.68;;;8.80;;
20283;SDS011;10301;50.832;4.080;2024-03-22T11:23:12;19.42;;;10.20;;
20283;SDS011;10301;50.832;4.080;2024-03-22T11:25:38;17.48;;;9.52;;
20283;SDS011;10301;50.832;4.080;2024-03-22T11:28:04;16.83;;;8.98;;
20283;SDS011;10301;50.832;4.080;2024-03-22T11:30:32;16.85;;;9.68;;
20283;SDS011;10301;50.832;4.080;2024-03-22T11:33:02;17.27;;;8.95;;
20283;SDS011;10301;50.832;4.080;2024-03-22T11:35:29;17.10;;;9.27;;
20283;SDS011;10301;50.832;4.080;2024-03-22T11:37:54;13.75;;;8.68;;
20283;SDS011;10301;50.832;4.080;2024-03-22T11:40:21;15.98;;;8.65;;
20283;SDS011;10301;50.832;4.080;2024-03-22T11:42:49;14.93;;;9.60;;
20283;SDS011;10301;50.832;4.080;2024-03-22T11:45:17;18.65;;;10.98;;
20283;SDS011;10301;50.832;4.080;2024-03-22T11:47:44;16.02;;;8.65;;
20283;SDS011;10301;50.832;4.080;2024-03-22T11:50:13;17.50;;;8.95;;
20283;SDS011;10301;50.832;4.080;2024-03-22T11:52:40;15.85;;;8.70;;
20283;SDS011;10301;50.832;4.080;2024-03-22T11:55:07;15.10;;;8.55;;
20283;SDS011;10301;50.832;4.080;2024-03-22T11:57:33;14.93;;;8.40;;
20283;SDS011;10301;50.832;4.080;2024-03-22T11:59:59;14.93;;;8.02;;
20283;SDS011;10301;50.832;4.080;2024-03-22T12:02:25;20.48;;;8.60;;
20283;SDS011;10301;50.832;4.080;2024-03-22T12:04:51;19.25;;;8.60;;
20283;SDS011;10301;50.832;4.080;2024-03-22T12:07:17;17.70;;;8.57;;
20283;SDS011;10301;50.832;4.080;2024-03-22T12:09:43;17.95;;;8.82;;
20283;SDS011;10301;50.832;4.080;2024-03-22T12:12:10;20.23;;;8.90;;
20283;SDS011;10301;50.832;4.080;2024-03-22T12:14:37;14.35;;;8.10;;
20283;SDS011;10301;50.832;4.080;2024-03-22T12:17:06;14.93;;;8.32;;
20283;SDS011;10301;50.832;4.080;2024-03-22T12:19:32;13.43;;;7.78;;
20283;SDS011;10301;50.832;4.080;2024-03-22T12:21:59;15.63;;;8.43;;
20283;SDS011;10301;50.832;4.080;2024-03-22T12:24:25;20.63;;;8.52;;
20283;SDS011;10301;50.832;4.080;2024-03-22T12:26:52;14.38;;;8.07;;
20283;SDS011;10301;50.832;4.080;2024-03-22T12:29:18;15.07;;;8.35;;
20283;SDS011;10301;50.832;4.080;2024-03-22T12:31:44;17.73;;;8.25;;
20283;SDS011;10301;50.832;4.080;2024-03-22T12:34:10;15.13;;;7.75;;
20283;SDS011;10301;50.832;4.080;2024-03-22T12:36:37;15.82;;;8.27;;
20283;SDS011;10301;50.832;4.080;2024-03-22T12:39:03;18.15;;;9.25;;
20283;SDS011;10301;50.832;4.080;2024-03-22T12:41:28;17.15;;;10.20;;
20283;SDS011;10301;50.832;4.080;2024-03-22T12:43:55;18.08;;;8.13;;
20283;SDS011;10301;50.832;4.080;2024-03-22T12:46:21;18.33;;;8.35;;
20283;SDS011;10301;50.832;4.080;2024-03-22T12:48:47;26.25;;;9.70;;
20283;SDS011;10301;50.832;4.080;2024-03-22T12:51:12;15.60;;;7.93;;
20283;SDS011;10301;50.832;4.080;2024-03-22T12:53:38;15.85;;;7.65;;
20283;SDS011;10301;50.832;4.080;2024-03-22T12:56:04;17.02;;;7.82;;
20283;SDS011;10301;50.832;4.080;2024-03-22T12:58:30;15.68;;;7.55;;
20283;SDS011;10301;50.832;4.080;2024-03-22T13:00:56;15.57;;;7.78;;
20283;SDS011;10301;50.832;4.080;2024-03-22T13:03:23;13.95;;;7.78;;
20283;SDS011;10301;50.832;4.080;2024-03-22T13:05:48;17.33;;;7.50;;
20283;SDS011;10301;50.832;4.080;2024-03-22T13:08:14;21.08;;;7.30;;
20283;SDS011;10301;50.832;4.080;2024-03-22T13:10:40;16.83;;;6.97;;
20283;SDS011;10301;50.832;4.080;2024-03-22T13:13:08;14.57;;;7.03;;
20283;SDS011;10301;50.832;4.080;2024-03-22T13:15:34;15.00;;;6.80;;
20283;SDS011;10301;50.832;4.080;2024-03-22T13:18:02;14.90;;;7.18;;
20283;SDS011;10301;50.832;4.080;2024-03-22T13:20:27;15.10;;;7.35;;
20283;SDS011;10301;50.832;4.080;2024-03-22T13:22:53;19.80;;;8.43;;
20283;SDS011;10301;50.832;4.080;2024-03-22T13:25:19;18.13;;;7.28;;
20283;SDS011;10301;50.832;4.080;2024-03-22T13:27:44;22.13;;;7.63;;
20283;SDS011;10301;50.832;4.080;2024-03-22T13:30:10;16.40;;;7.07;;
20283;SDS011;10301;50.832;4.080;2024-03-22T13:32:37;17.20;;;8.27;;
20283;SDS011;10301;50.832;4.080;2024-03-22T13:35:03;19.13;;;7.63;;
20283;SDS011;10301;50.832;4.080;2024-03-22T13:37:30;15.85;;;8.25;;
20283;SDS011;10301;50.832;4.080;2024-03-22T13:39:56;17.65;;;8.30;;
20283;SDS011;10301;50.832;4.080;2024-03-22T13:42:21;15.70;;;8.80;;
20283;SDS011;10301;50.832;4.080;2024-03-22T13:44:47;14.13;;;8.20;;
20283;SDS011;10301;50.832;4.080;2024-03-22T13:47:13;19.63;;;8.38;;
20283;SDS011;10301;50.832;4.080;2024-03-22T13:49:38;16.50;;;8.23;;
20283;SDS011;10301;50.832;4.080;2024-03-22T13:52:06;16.02;;;7.75;;
20283;SDS011;10301;50.832;4.080;2024-03-22T13:54:32;15.70;;;8.85;;
20283;SDS011;10301;50.832;4.080;2024-03-22T13:56:58;16.23;;;8.68;;
20283;SDS011;10301;50.832;4.080;2024-03-22T13:59:25;20.25;;;8.38;;
20283;SDS011;10301;50.832;4.080;2024-03-22T14:01:51;16.67;;;7.97;;
20283;SDS011;10301;50.832;4.080;2024-03-22T14:04:17;12.45;;;8.82;;
20283;SDS011;10301;50.832;4.080;2024-03-22T14:06:44;18.08;;;9.00;;
20283;SDS011;10301;50.832;4.080;2024-03-22T14:09:10;17.13;;;8.73;;
20283;SDS011;10301;50.832;4.080;2024-03-22T14:11:38;14.38;;;9.63;;
20283;SDS011;10301;50.832;4.080;2024-03-22T14:14:04;17.52;;;9.82;;
20283;SDS011;10301;50.832;4.080;2024-03-22T14:16:30;17.90;;;9.85;;